Time;durP1;ratioP1;P1;durP2;ratioP2;P2;SDS_P1;SDS_P2;PMS_P1;PMS_P2;Temp;Humidity;BMP_temperature;BMP_pressure;BME280_temperature;BME280_humidity;BME280_pressure;Samples;Min_cycle;Max_cycle;Signal;HPM_P1;HPM_P2
2021/03/18 00:02:16;;;;;;;;;;;2.60;99.90;;;;;;5034922;28;19905;-77
2021/03/18 00:04:41;;;;;;;;;;;2.50;99.90;;;;;;5035466;28;19960;-77
2021/03/18 00:07:07;;;;;;;;;;;2.40;99.90;;;;;;5034631;28;19905;-78
2021/03/18 00:09:32;;;;;;;;;;;2.30;99.90;;;;;;5036189;28;19905;-77
2021/03/18 00:11:58;;;;;;;;;;;2.30;99.90;;;;;;5035794;28;20030;-78
2021/03/18 00:14:24;;;;;;;;;;;2.30;99.90;;;;;;5035543;28;19913;-78
2021/03/18 00:16:49;;;;;;;;;;;2.30;99.90;;;;;;5035022;28;20015;-78
2021/03/18 00:19:15;;;;;;;;;;;2.40;99.90;;;;;;5033282;28;19964;-76
2021/03/18 00:21:41;;;;;;;;;;;2.30;99.90;;;;;;5032076;28;19905;-77
2021/03/18 00:24:06;;;;;;;;;;;2.40;99.90;;;;;;5031706;28;20277;-78
2021/03/18 00:26:32;;;;;;;;;;;2.50;99.90;;;;;;5033202;28;19906;-76
2021/03/18 00:28:58;;;;;;;;;;;2.50;99.90;;;;;;5031624;28;19940;-77
2021/03/18 00:31:26;;;;;;;;;;;2.40;99.90;;;;;;5033340;28;20000;-78
2021/03/18 00:33:52;;;;;;;;;;;2.50;99.90;;;;;;5033486;28;19959;-79
2021/03/18 00:36:18;;;;;;;;;;;2.50;99.90;;;;;;5033209;28;19909;-78
2021/03/18 00:38:44;;;;;;;;;;;2.40;99.90;;;;;;5031758;28;19912;-78
2021/03/18 00:41:10;;;;;;;;;;;2.30;99.90;;;;;;5033558;28;19913;-77
2021/03/18 00:43:35;;;;;;;;;;;2.40;99.90;;;;;;5033392;28;19962;-77
2021/03/18 00:46:02;;;;;;;;;;;2.40;99.90;;;;;;5033182;28;19905;-78
2021/03/18 00:48:28;;;;;;;;;;;2.40;99.90;;;;;;5032734;28;19971;-77
2021/03/18 00:50:55;;;;;;;;;;;2.40;99.90;;;;;;5034676;28;19912;-77
2021/03/18 00:53:22;;;;;;;;;;;2.30;99.90;;;;;;5032308;28;19912;-77
2021/03/18 00:55:48;;;;;;;;;;;2.20;99.90;;;;;;5032845;28;19909;-77
2021/03/18 00:58:14;;;;;;;;;;;2.20;99.90;;;;;;5032735;28;19905;-77
2021/03/18 01:00:47;;;;;;;;;;;2.30;99.90;;;;;;5034034;28;20299;-78
2021/03/18 01:03:12;;;;;;;;;;;2.20;99.90;;;;;;5033326;28;20368;-77
2021/03/18 01:05:46;;;;;;;;;;;2.10;99.90;;;;;;5032599;28;19905;-77
2021/03/18 01:08:12;;;;;;;;;;;1.90;99.90;;;;;;5031934;28;19940;-78
2021/03/18 01:10:42;;;;;;;;;;;1.70;99.90;;;;;;5033453;28;19905;-77
2021/03/18 01:13:08;;;;;;;;;;;1.60;99.90;;;;;;5032891;28;19911;-77
2021/03/18 01:15:34;;;;;;;;;;;1.60;99.90;;;;;;5035777;28;20007;-77
2021/03/18 01:17:59;;;;;;;;;;;1.60;99.90;;;;;;5035851;28;19909;-75
2021/03/18 01:20:25;;;;;;;;;;;1.70;99.90;;;;;;5037776;28;19958;-77
2021/03/18 01:22:51;;;;;;;;;;;1.70;99.90;;;;;;5036511;28;20004;-78
2021/03/18 01:25:16;;;;;;;;;;;1.50;99.90;;;;;;5035498;28;19995;-77
2021/03/18 01:27:42;;;;;;;;;;;1.50;99.90;;;;;;5037110;28;19912;-79
2021/03/18 01:30:09;;;;;;;;;;;1.40;99.90;;;;;;5037060;28;19909;-77
2021/03/18 01:32:35;;;;;;;;;;;1.40;99.90;;;;;;5037398;28;20360;-79
2021/03/18 01:35:00;;;;;;;;;;;1.30;99.90;;;;;;5035766;28;19915;-77
2021/03/18 01:37:26;;;;;;;;;;;1.30;99.90;;;;;;5036769;28;19988;-77
2021/03/18 01:39:51;;;;;;;;;;;1.20;99.90;;;;;;5036078;28;19978;-77
2021/03/18 01:42:17;;;;;;;;;;;1.10;99.90;;;;;;5036474;28;19905;-77
2021/03/18 01:44:42;;;;;;;;;;;1.10;99.90;;;;;;5037327;28;20327;-79
2021/03/18 01:47:08;;;;;;;;;;;1.10;99.90;;;;;;5036910;28;19913;-76
2021/03/18 01:49:33;;;;;;;;;;;1.00;99.90;;;;;;5035087;28;20435;-77
2021/03/18 01:51:59;;;;;;;;;;;1.00;99.90;;;;;;5035247;28;20395;-77
2021/03/18 01:54:25;;;;;;;;;;;0.90;99.90;;;;;;5036068;28;19905;-77
2021/03/18 01:56:50;;;;;;;;;;;0.90;99.90;;;;;;5036430;28;20391;-78
2021/03/18 01:59:15;;;;;;;;;;;0.80;99.90;;;;;;5036605;28;19995;-77
2021/03/18 02:01:41;;;;;;;;;;;0.60;99.90;;;;;;5036663;28;19908;-77
2021/03/18 02:04:06;;;;;;;;;;;0.70;99.90;;;;;;5035170;28;19905;-77
2021/03/18 02:06:32;;;;;;;;;;;0.70;99.90;;;;;;5035253;28;19905;-78
2021/03/18 02:08:57;;;;;;;;;;;0.70;99.90;;;;;;5036423;28;19956;-77
2021/03/18 02:11:23;;;;;;;;;;;0.70;99.90;;;;;;5036493;28;19952;-78
2021/03/18 02:13:48;;;;;;;;;;;0.70;99.90;;;;;;5035100;28;20016;-77
2021/03/18 02:16:14;;;;;;;;;;;0.60;99.90;;;;;;5035100;28;19916;-77
2021/03/18 02:18:47;;;;;;;;;;;0.70;99.90;;;;;;5035574;28;19958;-78
2021/03/18 02:21:25;;;;;;;;;;;0.70;99.90;;;;;;5035051;28;19905;-78
2021/03/18 02:23:53;;;;;;;;;;;0.80;99.90;;;;;;5035635;28;19958;-77
2021/03/18 02:26:37;;;;;;;;;;;0.80;99.90;;;;;;5034270;28;20328;-77
2021/03/18 02:29:21;;;;;;;;;;;1.00;99.90;;;;;;5034367;28;19905;-78
2021/03/18 02:31:53;;;;;;;;;;;1.10;99.90;;;;;;5036046;28;19913;-76
2021/03/18 02:34:30;;;;;;;;;;;1.10;99.90;;;;;;5035683;28;19912;-78
2021/03/18 02:37:01;;;;;;;;;;;1.30;99.90;;;;;;5035046;28;19911;-78
2021/03/18 02:39:31;;;;;;;;;;;1.30;99.90;;;;;;5034684;28;19959;-77
2021/03/18 02:41:59;;;;;;;;;;;1.30;99.90;;;;;;5034697;28;19905;-77
2021/03/18 02:44:29;;;;;;;;;;;1.40;99.90;;;;;;5034576;28;19905;-78
2021/03/18 02:47:00;;;;;;;;;;;1.40;99.90;;;;;;5034704;28;19955;-78
2021/03/18 02:49:26;;;;;;;;;;;1.50;99.90;;;;;;5034428;28;19912;-78
2021/03/18 02:51:53;;;;;;;;;;;1.60;99.90;;;;;;5036155;28;20512;-77
2021/03/18 02:54:19;;;;;;;;;;;1.60;99.90;;;;;;5034573;28;20465;-77
2021/03/18 02:56:46;;;;;;;;;;;1.60;99.90;;;;;;5034154;28;19995;-79
2021/03/18 02:59:13;;;;;;;;;;;1.60;99.90;;;;;;5035231;28;19911;-78
2021/03/18 03:01:40;;;;;;;;;;;1.60;99.90;;;;;;5035557;28;19905;-78
2021/03/18 03:04:05;;;;;;;;;;;1.70;99.90;;;;;;5034245;28;20258;-78
2021/03/18 03:06:31;;;;;;;;;;;1.60;99.90;;;;;;5035744;28;19912;-77
2021/03/18 03:08:59;;;;;;;;;;;1.60;99.90;;;;;;5034084;28;19915;-77
2021/03/18 03:11:25;;;;;;;;;;;1.60;99.90;;;;;;5034119;28;19905;-77
2021/03/18 03:13:51;;;;;;;;;;;1.60;99.90;;;;;;5035271;28;19954;-77
2021/03/18 03:16:19;;;;;;;;;;;1.80;99.90;;;;;;5034620;28;19909;-77
2021/03/18 03:18:44;;;;;;;;;;;1.70;99.90;;;;;;5034044;28;20372;-77
2021/03/18 03:21:11;;;;;;;;;;;1.70;99.90;;;;;;5035585;28;19905;-77
2021/03/18 03:23:37;;;;;;;;;;;1.80;99.90;;;;;;5034050;28;19944;-77
2021/03/18 03:26:03;;;;;;;;;;;1.80;99.90;;;;;;5033694;28;19905;-78
2021/03/18 03:28:29;;;;;;;;;;;1.70;99.90;;;;;;5033888;28;19905;-78
2021/03/18 03:30:55;;;;;;;;;;;1.80;99.90;;;;;;5035396;28;19912;-77
2021/03/18 03:33:21;;;;;;;;;;;1.90;99.90;;;;;;5035202;28;19920;-78
2021/03/18 03:35:46;;;;;;;;;;;1.90;99.90;;;;;;5033888;28;19909;-77
2021/03/18 03:38:12;;;;;;;;;;;1.90;99.90;;;;;;5033000;28;19962;-77
2021/03/18 03:40:37;;;;;;;;;;;1.90;99.90;;;;;;5035278;28;19983;-78
2021/03/18 03:43:03;;;;;;;;;;;1.90;99.90;;;;;;5035245;28;20353;-77
2021/03/18 03:45:29;;;;;;;;;;;2.00;99.90;;;;;;5034077;28;20555;-78
2021/03/18 03:47:55;;;;;;;;;;;2.00;99.90;;;;;;5034668;28;19936;-77
2021/03/18 03:50:21;;;;;;;;;;;2.00;99.90;;;;;;5035290;28;19928;-77
2021/03/18 03:52:52;;;;;;;;;;;2.00;99.90;;;;;;5035419;28;19905;-77
2021/03/18 03:55:20;;;;;;;;;;;2.10;99.90;;;;;;5033786;28;19908;-77
2021/03/18 03:57:58;;;;;;;;;;;2.00;99.90;;;;;;5033971;28;19912;-77
2021/03/18 04:00:23;;;;;;;;;;;2.00;99.90;;;;;;5034295;28;20310;-77
2021/03/18 04:02:50;;;;;;;;;;;2.00;99.90;;;;;;5035116;28;19991;-78
2021/03/18 04:05:16;;;;;;;;;;;2.00;99.90;;;;;;5035478;28;20275;-77
2021/03/18 04:07:43;;;;;;;;;;;2.00;99.90;;;;;;5033560;28;19905;-78
2021/03/18 04:10:10;;;;;;;;;;;2.00;99.90;;;;;;5035992;28;19905;-77
2021/03/18 04:12:38;;;;;;;;;;;2.10;99.90;;;;;;5033853;28;19912;-77
2021/03/18 04:15:13;;;;;;;;;;;2.00;99.90;;;;;;5034208;28;19918;-77
2021/03/18 04:17:41;;;;;;;;;;;2.10;99.90;;;;;;5033316;28;19909;-78
2021/03/18 04:20:10;;;;;;;;;;;2.10;99.90;;;;;;5032899;28;19905;-78
2021/03/18 04:22:36;;;;;;;;;;;1.90;99.90;;;;;;5034092;28;19905;-78
2021/03/18 04:25:02;;;;;;;;;;;1.90;99.90;;;;;;5035267;28;20452;-77
2021/03/18 04:27:28;;;;;;;;;;;1.90;99.90;;;;;;5032799;28;20257;-78
2021/03/18 04:29:55;;;;;;;;;;;1.90;99.90;;;;;;5034033;28;20353;-78
2021/03/18 04:32:21;;;;;;;;;;;2.00;99.90;;;;;;5032686;28;19913;-77
2021/03/18 04:34:47;;;;;;;;;;;2.00;99.90;;;;;;5032851;28;19913;-78
2021/03/18 04:37:13;;;;;;;;;;;2.00;99.90;;;;;;5033989;28;19927;-77
2021/03/18 04:39:39;;;;;;;;;;;2.00;99.90;;;;;;5032338;28;19905;-78
2021/03/18 04:42:05;;;;;;;;;;;1.90;99.90;;;;;;5032304;28;19966;-78
2021/03/18 04:44:31;;;;;;;;;;;1.90;99.90;;;;;;5032074;28;19995;-78
2021/03/18 04:46:58;;;;;;;;;;;1.90;99.90;;;;;;5033771;28;19905;-78
2021/03/18 04:49:25;;;;;;;;;;;1.80;99.90;;;;;;5032748;28;19907;-77
2021/03/18 04:51:50;;;;;;;;;;;1.70;99.90;;;;;;5033533;28;19905;-78
2021/03/18 04:54:16;;;;;;;;;;;1.60;99.90;;;;;;5033123;28;19905;-78
2021/03/18 04:56:44;;;;;;;;;;;1.50;99.90;;;;;;5032336;28;20360;-77
2021/03/18 04:59:11;;;;;;;;;;;1.40;99.90;;;;;;5032075;28;19909;-78
2021/03/18 05:01:37;;;;;;;;;;;1.20;99.90;;;;;;5032202;28;19905;-78
2021/03/18 05:04:04;;;;;;;;;;;1.30;99.90;;;;;;5032106;28;19959;-79
2021/03/18 05:06:31;;;;;;;;;;;1.30;99.90;;;;;;5032225;28;19940;-77
2021/03/18 05:08:58;;;;;;;;;;;1.10;99.90;;;;;;5032284;28;19999;-78
2021/03/18 05:11:24;;;;;;;;;;;1.10;99.90;;;;;;5032839;28;19912;-78
2021/03/18 05:13:50;;;;;;;;;;;1.00;99.90;;;;;;5033651;28;19909;-78
2021/03/18 05:16:16;;;;;;;;;;;1.00;99.90;;;;;;5033846;28;20011;-78
2021/03/18 05:18:42;;;;;;;;;;;0.90;99.90;;;;;;5033861;28;19912;-77
2021/03/18 05:21:07;;;;;;;;;;;0.90;99.90;;;;;;5033551;28;19905;-77
2021/03/18 05:23:34;;;;;;;;;;;0.80;99.90;;;;;;5032342;28;19912;-78
2021/03/18 05:26:00;;;;;;;;;;;0.80;99.90;;;;;;5033716;28;19909;-78
2021/03/18 05:28:26;;;;;;;;;;;0.80;99.90;;;;;;5034190;28;19905;-78
2021/03/18 05:30:51;;;;;;;;;;;0.90;99.90;;;;;;5033323;28;20237;-78
2021/03/18 05:33:17;;;;;;;;;;;0.80;99.90;;;;;;5034206;28;19920;-77
2021/03/18 05:35:43;;;;;;;;;;;0.80;99.90;;;;;;5032111;28;19909;-77
2021/03/18 05:38:10;;;;;;;;;;;0.80;99.90;;;;;;5033891;28;20328;-77
2021/03/18 05:40:36;;;;;;;;;;;0.70;99.90;;;;;;5033427;28;19905;-78
2021/03/18 05:43:01;;;;;;;;;;;0.70;99.90;;;;;;5032576;28;19927;-77
2021/03/18 05:45:27;;;;;;;;;;;0.80;99.90;;;;;;5033898;28;19958;-78
2021/03/18 05:47:53;;;;;;;;;;;0.80;99.90;;;;;;5033373;28;19905;-77
2021/03/18 05:50:19;;;;;;;;;;;0.80;99.90;;;;;;5040201;28;19908;-77
2021/03/18 05:52:45;;;;;;;;;;;1.00;99.90;;;;;;5052021;28;19955;-77
2021/03/18 05:55:11;;;;;;;;;;;1.10;99.90;;;;;;5052490;28;19951;-78
2021/03/18 05:57:38;;;;;;;;;;;1.10;99.90;;;;;;5051801;28;19905;-77
2021/03/18 06:00:08;;;;;;;;;;;1.20;99.90;;;;;;5050806;28;19994;-80
2021/03/18 06:02:34;;;;;;;;;;;1.20;99.90;;;;;;5054369;28;19950;-78
2021/03/18 06:05:05;;;;;;;;;;;1.30;99.90;;;;;;5054021;28;19948;-76
2021/03/18 06:07:31;;;;;;;;;;;1.30;99.90;;;;;;5055250;28;20367;-78
2021/03/18 06:09:56;;;;;;;;;;;1.50;99.90;;;;;;5055677;28;19959;-78
2021/03/18 06:12:22;;;;;;;;;;;1.70;99.90;;;;;;5046346;28;20376;-77
2021/03/18 06:14:48;;;;;;;;;;;1.70;99.90;;;;;;5054736;28;19909;-77
2021/03/18 06:17:14;;;;;;;;;;;1.80;99.90;;;;;;5055505;28;19905;-78
2021/03/18 06:19:40;;;;;;;;;;;1.80;99.90;;;;;;5055480;28;20334;-77
2021/03/18 06:22:05;;;;;;;;;;;1.70;99.90;;;;;;5055866;28;19905;-77
2021/03/18 06:24:32;;;;;;;;;;;1.70;99.90;;;;;;5053845;28;20435;-78
2021/03/18 06:26:58;;;;;;;;;;;1.60;99.90;;;;;;5053723;28;20296;-77
2021/03/18 06:29:27;;;;;;;;;;;1.60;99.90;;;;;;5055267;28;19905;-78
2021/03/18 06:31:52;;;;;;;;;;;1.70;99.90;;;;;;5053255;28;19912;-77
2021/03/18 06:34:36;;;;;;;;;;;1.70;99.90;;;;;;5054387;28;19912;-77
2021/03/18 06:37:02;;;;;;;;;;;1.60;99.90;;;;;;5053736;28;19931;-77
2021/03/18 06:39:29;;;;;;;;;;;1.70;99.90;;;;;;5053561;28;20356;-75
2021/03/18 06:41:59;;;;;;;;;;;1.70;99.90;;;;;;5053364;28;19909;-77
2021/03/18 06:44:29;;;;;;;;;;;1.70;99.90;;;;;;5053414;28;20326;-77
2021/03/18 06:46:56;;;;;;;;;;;1.60;99.90;;;;;;5054742;28;20364;-78
2021/03/18 06:49:22;;;;;;;;;;;1.70;99.90;;;;;;5052968;28;19904;-78
2021/03/18 06:52:07;;;;;;;;;;;1.80;99.90;;;;;;5054565;28;19912;-78
2021/03/18 06:54:36;;;;;;;;;;;1.80;99.90;;;;;;5055439;28;19928;-77
2021/03/18 06:57:02;;;;;;;;;;;2.00;99.90;;;;;;5055400;28;19909;-77
2021/03/18 06:59:29;;;;;;;;;;;2.10;99.90;;;;;;5056691;28;19911;-78
2021/03/18 07:02:20;;;;;;;;;;;2.20;99.90;;;;;;5054182;28;19915;-78
2021/03/18 07:04:47;;;;;;;;;;;2.30;99.90;;;;;;5033607;28;19909;-78
2021/03/18 07:07:14;;;;;;;;;;;2.60;99.90;;;;;;5034200;28;19905;-77
2021/03/18 07:09:40;;;;;;;;;;;2.80;99.90;;;;;;5035834;28;19915;-79
2021/03/18 07:12:06;;;;;;;;;;;3.30;99.90;;;;;;5036177;28;20003;-80
2021/03/18 07:14:42;;;;;;;;;;;3.70;99.90;;;;;;5038360;28;19987;-79
2021/03/18 07:17:09;;;;;;;;;;;3.90;99.90;;;;;;5038044;28;19941;-80
2021/03/18 07:19:35;;;;;;;;;;;4.30;99.90;;;;;;5036571;28;19905;-79
2021/03/18 07:22:04;;;;;;;;;;;4.80;99.90;;;;;;5036519;28;19927;-79
2021/03/18 07:24:32;;;;;;;;;;;5.00;99.90;;;;;;5036528;28;20463;-78
2021/03/18 07:27:08;;;;;;;;;;;5.30;99.90;;;;;;5038805;28;19959;-79
2021/03/18 07:29:34;;;;;;;;;;;5.40;99.90;;;;;;5037395;28;20387;-76
2021/03/18 07:31:59;;;;;;;;;;;5.40;99.90;;;;;;5042418;28;19921;-77
2021/03/18 07:34:25;;;;;;;;;;;5.40;99.90;;;;;;5044821;28;19905;-77
2021/03/18 07:36:54;;;;;;;;;;;5.50;99.90;;;;;;5042126;28;19928;-78
2021/03/18 07:39:19;;;;;;;;;;;6.90;99.90;;;;;;5037480;28;19909;-78
2021/03/18 07:41:45;;;;;;;;;;;8.90;99.90;;;;;;5039358;28;19955;-76
2021/03/18 07:44:13;;;;;;;;;;;9.60;99.90;;;;;;5047729;28;20391;-79
2021/03/18 07:46:38;;;;;;;;;;;10.10;99.90;;;;;;5042263;28;20330;-80
2021/03/18 07:49:18;;;;;;;;;;;10.80;99.90;;;;;;5042154;28;20241;-79
2021/03/18 07:51:45;;;;;;;;;;;11.40;99.90;;;;;;5042523;28;19964;-78
2021/03/18 07:54:15;;;;;;;;;;;11.90;97.70;;;;;;5043054;28;19951;-78
2021/03/18 07:56:54;;;;;;;3.20;2.10;;;12.30;94.60;;;;;;5036573;28;19919;-77
2021/03/18 07:59:21;;;;;;;4.07;2.63;;;14.00;90.00;;;;;;5032953;28;20029;-78
2021/03/18 08:01:47;;;;;;;7.75;2.70;;;16.20;67.90;;;;;;5033052;28;20022;-79
2021/03/18 08:04:14;;;;;;;5.57;3.00;;;16.40;60.60;;;;;;5037078;28;20113;-79
2021/03/18 08:06:40;;;;;;;;;;;16.60;60.80;;;;;;5035253;28;20032;-77
2021/03/18 08:09:10;;;;;;;4.37;2.77;;;18.10;55.90;;;;;;5032754;28;20360;-78
2021/03/18 08:11:36;;;;;;;;;;;17.70;51.00;;;;;;5032847;28;20026;-76
2021/03/18 08:14:07;;;;;;;2.13;1.33;;;18.80;51.10;;;;;;5032440;28;20380;-77
2021/03/18 08:16:32;;;;;;;;;;;19.20;46.90;;;;;;5032689;28;20284;-77
2021/03/18 08:18:58;;;;;;;;;;;19.00;49.00;;;;;;5032021;28;19935;-78
2021/03/18 08:21:33;;;;;;;;;;;19.20;46.80;;;;;;5037466;28;20380;-77
2021/03/18 08:23:58;;;;;;;4.10;1.27;;;21.10;44.80;;;;;;5038335;28;19909;-76
2021/03/18 08:26:53;;;;;;;;;;;20.80;43.80;;;;;;5032178;28;20091;-78
2021/03/18 08:29:22;;;;;;;;;;;20.70;42.60;;;;;;5027503;28;20455;-75
2021/03/18 08:31:52;;;;;;;;;;;20.10;46.20;;;;;;5033003;28;19960;-77
2021/03/18 08:34:19;;;;;;;;;;;20.50;43.80;;;;;;5051799;28;19909;-78
2021/03/18 08:36:51;;;;;;;;;;;21.40;42.40;;;;;;5035565;28;19913;-77
2021/03/18 08:39:35;;;;;;;;;;;20.40;42.80;;;;;;5036602;28;19909;-76
2021/03/18 08:42:01;;;;;;;1.80;1.27;;;20.10;42.90;;;;;;5048841;28;20015;-75
2021/03/18 08:44:29;;;;;;;;;;;20.60;43.60;;;;;;5049573;28;20511;-76
2021/03/18 08:46:54;;;;;;;;;;;19.90;43.40;;;;;;5049759;28;19991;-76
2021/03/18 08:49:38;;;;;;;;;;;20.60;42.60;;;;;;5050516;28;19991;-75
2021/03/18 08:52:03;;;;;;;;;;;20.30;42.10;;;;;;5051353;28;19909;-77
2021/03/18 08:54:50;;;;;;;2.35;1.50;;;18.60;45.40;;;;;;5049116;28;19912;-76
2021/03/18 08:57:26;;;;;;;;;;;16.70;46.70;;;;;;5049838;28;20020;-77
2021/03/18 08:59:53;;;;;;;;;;;16.60;49.20;;;;;;5050196;28;19931;-77
2021/03/18 09:02:20;;;;;;;;;;;17.30;47.20;;;;;;5049944;28;19995;-78
2021/03/18 09:04:47;;;;;;;;;;;17.80;47.60;;;;;;5048657;28;19905;-76
2021/03/18 09:07:18;;;;;;;;;;;19.20;44.80;;;;;;5049333;28;19909;-75
2021/03/18 09:09:44;;;;;;;;;;;21.70;41.50;;;;;;5049558;28;19905;-75
2021/03/18 09:12:10;;;;;;;;;;;21.90;41.10;;;;;;5051223;28;19909;-75
2021/03/18 09:14:36;;;;;;;;;;;21.10;40.70;;;;;;5050134;28;19911;-76
2021/03/18 09:17:06;;;;;;;;;;;19.80;44.10;;;;;;5049751;28;19908;-78
2021/03/18 09:19:31;;;;;;;;;;;18.80;44.80;;;;;;5049369;28;19908;-76
2021/03/18 09:21:57;;;;;;;2.42;1.52;;;19.80;44.20;;;;;;5048986;28;19913;-77
2021/03/18 09:24:23;;;;;;;2.50;1.40;;;20.90;43.70;;;;;;5049028;28;20036;-78
2021/03/18 09:26:48;;;;;;;0.80;0.80;;;21.60;38.70;;;;;;5049183;28;20501;-76
2021/03/18 09:29:14;;;;;;;1.98;1.48;;;21.90;39.60;;;;;;5050408;28;20103;-77
2021/03/18 09:31:39;;;;;;;4.30;1.88;;;21.90;39.30;;;;;;5048941;28;20480;-76
2021/03/18 09:34:06;;;;;;;2.10;1.50;;;21.80;40.00;;;;;;5049965;28;20032;-75
2021/03/18 09:36:32;;;;;;;1.30;1.05;;;22.40;38.70;;;;;;5052292;28;20029;-75
2021/03/18 09:39:02;;;;;;;;;;;23.80;39.50;;;;;;5053732;28;20728;-77
2021/03/18 09:41:29;;;;;;;;;;;24.40;37.70;;;;;;5053839;28;19928;-77
2021/03/18 09:44:01;;;;;;;;;;;23.50;36.90;;;;;;5053465;28;20359;-77
2021/03/18 09:46:26;;;;;;;1.35;0.70;;;25.20;35.40;;;;;;5055153;28;20473;-76
2021/03/18 09:48:52;;;;;;;2.03;1.37;;;24.80;37.30;;;;;;5054724;28;20108;-75
2021/03/18 09:51:18;;;;;;;;;;;24.60;37.30;;;;;;5054400;28;20052;-77
2021/03/18 09:53:54;;;;;;;2.47;1.70;;;24.30;38.60;;;;;;5054692;28;19944;-75
2021/03/18 09:56:21;;;;;;;;;;;23.60;38.40;;;;;;5054215;28;20040;-75
2021/03/18 09:58:47;;;;;;;2.55;1.35;;;24.70;36.00;;;;;;5055064;28;19985;-76
2021/03/18 10:01:17;;;;;;;;;;;24.60;36.30;;;;;;5053583;28;20071;-75
2021/03/18 10:04:04;;;;;;;1.70;1.30;;;23.60;37.50;;;;;;5053814;28;20352;-75
2021/03/18 10:06:38;;;;;;;1.30;1.20;;;22.50;36.90;;;;;;5053505;28;20029;-77
2021/03/18 10:09:14;;;;;;;;;;;21.20;39.50;;;;;;5051139;28;20025;-75
2021/03/18 10:11:41;;;;;;;;;;;21.10;38.80;;;;;;5034609;28;20017;-76
2021/03/18 10:14:06;;;;;;;;;;;20.80;41.40;;;;;;5034245;28;19905;-77
2021/03/18 10:16:32;;;;;;;;;;;21.60;40.10;;;;;;5033965;28;20265;-76
2021/03/18 10:18:58;;;;;;;;;;;21.80;38.20;;;;;;5034068;28;19905;-76
2021/03/18 10:21:24;;;;;;;;;;;22.30;38.80;;;;;;5035604;28;19912;-78
2021/03/18 10:23:49;;;;;;;;;;;22.50;39.90;;;;;;5034316;28;19912;-79
2021/03/18 10:26:25;;;;;;;2.43;1.90;;;21.90;38.40;;;;;;5035496;28;19905;-78
2021/03/18 10:29:01;;;;;;;2.63;2.10;;;22.00;40.40;;;;;;5033499;28;20481;-76
2021/03/18 10:31:27;;;;;;;;;;;21.70;41.00;;;;;;5033470;28;20034;-77
2021/03/18 10:33:53;;;;;;;;;;;20.10;43.10;;;;;;5033253;28;19916;-77
2021/03/18 10:36:31;;;;;;;;;;;19.40;42.70;;;;;;5033712;28;19908;-77
2021/03/18 10:38:58;;;;;;;;;;;20.10;42.40;;;;;;5033317;28;19912;-77
2021/03/18 10:41:23;;;;;;;;;;;20.20;43.20;;;;;;5033547;28;19916;-75
2021/03/18 10:43:49;;;;;;;;;;;20.10;45.30;;;;;;5033491;28;20105;-75
2021/03/18 10:46:17;;;;;;;;;;;19.80;42.50;;;;;;5032986;28;19948;-76
2021/03/18 10:48:47;;;;;;;4.25;2.42;;;20.00;44.40;;;;;;5032064;28;19909;-75
2021/03/18 10:51:15;;;;;;;3.85;2.53;;;20.30;44.10;;;;;;5046126;28;20033;-75
2021/03/18 10:53:41;;;;;;;;;;;20.90;41.70;;;;;;5046482;28;20683;-76
2021/03/18 10:56:09;;;;;;;;;;;19.70;44.30;;;;;;5044942;28;20307;-76
2021/03/18 10:58:35;;;;;;;;;;;20.20;44.20;;;;;;5041754;28;19905;-76
2021/03/18 11:01:02;;;;;;;;;;;18.30;43.80;;;;;;5038741;28;20268;-76
2021/03/18 11:03:32;;;;;;;;;;;16.90;47.10;;;;;;5041326;28;19904;-75
2021/03/18 11:05:58;;;;;;;;;;;16.10;50.80;;;;;;5042148;28;20410;-75
2021/03/18 11:08:31;;;;;;;;;;;17.60;46.70;;;;;;5043576;28;19955;-76
2021/03/18 11:10:58;;;;;;;;;;;18.00;43.80;;;;;;5046816;28;19909;-75
2021/03/18 11:13:25;;;;;;;;;;;18.40;44.50;;;;;;5043334;28;19912;-76
2021/03/18 11:16:03;;;;;;;3.38;1.73;;;19.50;42.90;;;;;;5037669;28;19921;-76
2021/03/18 11:18:31;;;;;;;;;;;19.20;45.20;;;;;;5037736;28;20060;-77
2021/03/18 11:20:57;;;;;;;1.83;1.65;;;19.40;42.00;;;;;;5046155;28;19912;-75
2021/03/18 11:23:30;;;;;;;;;;;18.50;43.70;;;;;;5045921;28;20032;-75
2021/03/18 11:25:56;;;;;;;;;;;18.00;43.50;;;;;;5041880;28;20378;-77
2021/03/18 11:28:22;;;;;;;;;;;18.40;44.80;;;;;;5042745;28;19905;-77
2021/03/18 11:30:48;;;;;;;;;;;16.40;44.50;;;;;;5050930;28;20383;-76
2021/03/18 11:33:14;;;;;;;;;;;15.50;48.40;;;;;;5054883;28;20074;-78
2021/03/18 11:35:42;;;;;;;;;;;14.30;48.10;;;;;;5042178;28;19919;-77
2021/03/18 11:38:07;;;;;;;;;;;13.30;51.70;;;;;;5047010;28;19951;-75
2021/03/18 11:40:33;;;;;;;;;;;11.80;52.30;;;;;;5052995;28;19908;-75
2021/03/18 11:42:59;;;;;;;;;;;10.80;57.10;;;;;;5045770;28;19909;-76
2021/03/18 11:45:24;;;;;;;;;;;10.50;64.00;;;;;;5053361;28;20008;-78
2021/03/18 11:47:50;;;;;;;;;;;9.80;74.50;;;;;;5046494;28;19909;-75
2021/03/18 11:50:15;;;;;;;;;;;9.40;86.10;;;;;;5033933;28;19912;-77
2021/03/18 11:52:41;;;;;;;;;;;9.40;88.50;;;;;;5032279;28;20332;-77
2021/03/18 11:55:06;;;;;;;;;;;9.80;92.50;;;;;;5046459;28;19912;-76
2021/03/18 11:57:32;;;;;;;;;;;11.70;84.90;;;;;;5052656;28;19905;-75
2021/03/18 11:59:57;;;;;;;2.67;1.70;;;13.10;65.90;;;;;;5046300;28;19931;-75
2021/03/18 12:02:23;;;;;;;;;;;13.90;54.10;;;;;;5052609;28;20032;-76
2021/03/18 12:04:48;;;;;;;2.65;1.60;;;13.90;54.60;;;;;;5051856;28;19911;-75
2021/03/18 12:07:14;;;;;;;1.50;1.40;;;13.50;60.30;;;;;;5034001;28;20036;-79
2021/03/18 12:09:40;;;;;;;2.10;1.38;;;12.80;56.40;;;;;;5033337;28;20033;-76
2021/03/18 12:12:06;;;;;;;2.13;1.20;;;12.50;59.00;;;;;;5031730;28;20481;-76
2021/03/18 12:14:33;;;;;;;2.00;1.60;;;12.30;63.20;;;;;;5034379;28;20501;-78
2021/03/18 12:16:58;;;;;;;;;;;11.90;59.60;;;;;;5033386;28;20032;-77
2021/03/18 12:19:24;;;;;;;;;;;12.20;68.10;;;;;;5033500;28;19905;-77
2021/03/18 12:21:49;;;;;;;;;;;12.20;59.40;;;;;;5039542;28;20008;-77
2021/03/18 12:24:14;;;;;;;;;;;11.60;67.90;;;;;;5043698;28;19905;-78
2021/03/18 12:26:40;;;;;;;;;;;11.40;70.80;;;;;;5048282;28;19920;-77
2021/03/18 12:29:06;;;;;;;;;;;11.10;80.20;;;;;;5044150;28;20268;-79
2021/03/18 12:31:31;;;;;;;;;;;11.20;68.90;;;;;;5047247;28;19909;-77
2021/03/18 12:33:57;;;;;;;1.67;1.58;;;10.60;68.40;;;;;;5032556;28;19999;-77
2021/03/18 12:36:24;;;;;;;1.98;1.55;;;9.70;71.30;;;;;;5034295;28;23232;-77
2021/03/18 12:38:50;;;;;;;2.13;1.38;;;9.10;73.10;;;;;;5051858;28;20028;-79
2021/03/18 12:41:16;;;;;;;;;;;8.70;85.20;;;;;;5052683;28;20389;-77
2021/03/18 12:43:42;;;;;;;;;;;8.50;80.90;;;;;;5053087;28;20454;-77
2021/03/18 12:46:07;;;;;;;;;;;8.60;84.30;;;;;;5052868;28;20399;-78
2021/03/18 12:48:33;;;;;;;;;;;8.70;89.70;;;;;;5051914;28;20004;-78
2021/03/18 12:50:58;;;;;;;;;;;8.70;90.10;;;;;;5051665;28;19912;-78
2021/03/18 12:53:25;;;;;;;;;;;8.60;89.80;;;;;;5051831;28;19931;-77
2021/03/18 12:55:51;;;;;;;;;;;8.60;85.60;;;;;;5051330;28;19912;-77
2021/03/18 12:58:16;;;;;;;;;;;8.70;88.60;;;;;;5051698;28;19905;-77
2021/03/18 13:00:42;;;;;;;;;;;8.80;92.10;;;;;;5052785;28;19927;-77
2021/03/18 13:03:08;;;;;;;;;;;8.90;87.50;;;;;;5052844;28;19963;-78
2021/03/18 13:05:34;;;;;;;;;;;9.40;92.10;;;;;;5052863;28;19905;-78
2021/03/18 13:07:59;;;;;;;;;;;10.40;86.80;;;;;;5051385;28;20018;-78
2021/03/18 13:10:25;;;;;;;;;;;11.20;73.30;;;;;;5051226;28;19912;-77
2021/03/18 13:12:51;;;;;;;;;;;11.20;74.10;;;;;;5052263;28;19904;-77
2021/03/18 13:15:17;;;;;;;2.05;1.45;;;11.30;72.40;;;;;;5051702;28;19916;-78
2021/03/18 13:17:43;;;;;;;;;;;11.60;80.10;;;;;;5052904;28;20022;-77
2021/03/18 13:20:11;;;;;;;;;;;12.30;76.10;;;;;;5054709;28;20363;-78
2021/03/18 13:22:36;;;;;;;;;;;12.50;66.30;;;;;;5053590;28;19948;-77
2021/03/18 13:25:04;;;;;;;;;;;12.50;67.60;;;;;;5052006;28;19959;-78
2021/03/18 13:27:29;;;;;;;1.75;1.40;;;11.90;69.70;;;;;;5053012;28;19958;-77
2021/03/18 13:29:55;;;;;;;;;;;11.00;78.10;;;;;;5056612;28;20033;-77
2021/03/18 13:32:20;;;;;;;;;;;10.30;90.20;;;;;;5067209;28;19936;-77
2021/03/18 13:34:46;;;;;;;;;;;9.70;95.30;;;;;;5062276;28;19962;-80
2021/03/18 13:37:11;;;;;;;;;;;9.50;94.00;;;;;;5053622;28;19912;-77
2021/03/18 13:39:37;;;;;;;;;;;9.30;95.60;;;;;;5056092;28;20268;-76
2021/03/18 13:42:02;;;;;;;;;;;9.40;99.40;;;;;;5062954;28;19905;-78
2021/03/18 13:44:28;;;;;;;;;;;9.70;98.00;;;;;;5063607;28;20332;-77
2021/03/18 13:46:53;;;;;;;;;;;9.60;99.10;;;;;;5062282;28;19958;-76
2021/03/18 13:49:19;;;;;;;;;;;9.70;96.00;;;;;;5061773;28;19912;-76
2021/03/18 13:51:44;;;;;;;;;;;9.90;93.30;;;;;;5064091;28;19915;-77
2021/03/18 13:54:12;;;;;;;;;;;9.90;95.70;;;;;;5061491;28;19909;-77
2021/03/18 13:56:38;;;;;;;;;;;9.90;94.00;;;;;;5064322;28;19908;-78
2021/03/18 13:59:03;;;;;;;;;;;9.90;95.00;;;;;;5062239;28;19905;-77
2021/03/18 14:01:28;;;;;;;;;;;10.00;95.60;;;;;;5061658;28;20286;-78
2021/03/18 14:03:54;;;;;;;;;;;10.10;95.90;;;;;;5063914;28;19959;-78
2021/03/18 14:06:19;;;;;;;;;;;10.00;93.40;;;;;;5062160;28;19920;-76
2021/03/18 14:08:45;;;;;;;;;;;10.20;92.40;;;;;;5061511;28;19933;-79
2021/03/18 14:11:10;;;;;;;;;;;10.50;88.90;;;;;;5063177;28;19920;-77
2021/03/18 14:13:36;;;;;;;;;;;10.30;83.10;;;;;;5061371;28;19905;-79
2021/03/18 14:16:03;;;;;;;;;;;10.30;84.30;;;;;;5062161;28;19943;-78